sensor_id;sensor_type;location;lat;lon;timestamp;pressure;altitude;pressure_sealevel;temperature;humidity
68376;BME280;55318;52.068;5.188;2023-01-28T00:02:41;103047.0;;;4.99;77.34
68376;BME280;55318;52.068;5.188;2023-01-28T00:04:17;103048.0;;;5.14;77.5
68376;BME280;55318;52.068;5.188;2023-01-28T00:06:01;103058.99999999999;;;4.96;77.81
68376;BME280;55318;52.068;5.188;2023-01-28T00:09:14;103061.99999999999;;;4.91;76.77
68376;BME280;55318;52.068;5.188;2023-01-28T00:10:50;103053.0;;;5.03;76.33
68376;BME280;55318;52.068;5.188;2023-01-28T00:12:26;103058.0;;;5.19;76.45
68376;BME280;55318;52.068;5.188;2023-01-28T00:15:41;103057.0;;;5.19;76.06
68376;BME280;55318;52.068;5.188;2023-01-28T00:17:17;103058.0;;;5.19;76.44
68376;BME280;55318;52.068;5.188;2023-01-28T00:18:53;103063.00000000001;;;5.05;77.63
68376;BME280;55318;52.068;5.188;2023-01-28T00:20:30;103068.0;;;5.03;77.16
68376;BME280;55318;52.068;5.188;2023-01-28T00:23:47;103061.99999999999;;;5.12;76.67
68376;BME280;55318;52.068;5.188;2023-01-28T00:25:26;103067.0;;;5.0;76.05
68376;BME280;55318;52.068;5.188;2023-01-28T00:27:03;103067.0;;;4.92;76.08
68376;BME280;55318;52.068;5.188;2023-01-28T00:30:16;103059.99999999999;;;5.0;76.67
68376;BME280;55318;52.068;5.188;2023-01-28T00:31:53;103059.99999999999;;;5.08;76.27
68376;BME280;55318;52.068;5.188;2023-01-28T00:33:31;103061.99999999999;;;4.99;75.7
68376;BME280;55318;52.068;5.188;2023-01-28T00:35:08;103067.0;;;4.82;76.53
68376;BME280;55318;52.068;5.188;2023-01-28T00:38:20;103067.0;;;4.74;77.78
68376;BME280;55318;52.068;5.188;2023-01-28T00:39:57;103067.0;;;4.87;76.73
68376;BME280;55318;52.068;5.188;2023-01-28T00:41:33;103067.0;;;4.99;76.66
68376;BME280;55318;52.068;5.188;2023-01-28T00:44:45;103064.00000000001;;;4.83;76.86
68376;BME280;55318;52.068;5.188;2023-01-28T00:46:22;103059.99999999999;;;4.88;76.23
68376;BME280;55318;52.068;5.188;2023-01-28T00:47:59;103058.0;;;4.83;76.11
68376;BME280;55318;52.068;5.188;2023-01-28T00:51:13;103063.00000000001;;;4.87;75.98
68376;BME280;55318;52.068;5.188;2023-01-28T00:52:51;103061.99999999999;;;4.91;75.62
68376;BME280;55318;52.068;5.188;2023-01-28T00:54:27;103065.00000000001;;;4.8;76.03
68376;BME280;55318;52.068;5.188;2023-01-28T00:56:05;103068.0;;;4.67;74.91
68376;BME280;55318;52.068;5.188;2023-01-28T00:59:18;103067.0;;;4.53;74.91
68376;BME280;55318;52.068;5.188;2023-01-28T01:00:55;103065.00000000001;;;4.45;75.19
68376;BME280;55318;52.068;5.188;2023-01-28T01:02:31;103064.00000000001;;;4.38;75.11
68376;BME280;55318;52.068;5.188;2023-01-28T01:05:44;103065.00000000001;;;4.38;75.49
68376;BME280;55318;52.068;5.188;2023-01-28T01:07:22;103061.99999999999;;;4.5;75.69
68376;BME280;55318;52.068;5.188;2023-01-28T01:09:00;103054.0;;;4.58;74.8
68376;BME280;55318;52.068;5.188;2023-01-28T01:10:37;103054.0;;;4.51;74.99
68376;BME280;55318;52.068;5.188;2023-01-28T01:13:52;103053.0;;;4.66;75.37
68376;BME280;55318;52.068;5.188;2023-01-28T01:15:28;103050.0;;;4.61;75.24
68376;BME280;55318;52.068;5.188;2023-01-28T01:17:04;103046.0;;;4.59;75.22
68376;BME280;55318;52.068;5.188;2023-01-28T01:20:20;103051.0;;;4.53;76.31
68376;BME280;55318;52.068;5.188;2023-01-28T01:21:57;103058.0;;;4.64;75.27
68376;BME280;55318;52.068;5.188;2023-01-28T01:23:33;103050.0;;;4.49;74.83
68376;BME280;55318;52.068;5.188;2023-01-28T01:26:49;103054.0;;;4.54;74.61
68376;BME280;55318;52.068;5.188;2023-01-28T01:28:25;103055.0;;;4.53;74.73
68376;BME280;55318;52.068;5.188;2023-01-28T01:30:01;103058.99999999999;;;4.34;75.17
68376;BME280;55318;52.068;5.188;2023-01-28T01:31:38;103056.0;;;4.41;76.48
68376;BME280;55318;52.068;5.188;2023-01-28T01:34:52;103055.0;;;4.5;76.64
68376;BME280;55318;52.068;5.188;2023-01-28T01:36:28;103057.0;;;4.57;76.91
68376;BME280;55318;52.068;5.188;2023-01-28T01:38:05;103054.0;;;4.49;77.23
68376;BME280;55318;52.068;5.188;2023-01-28T01:41:23;103050.0;;;4.5;75.55
68376;BME280;55318;52.068;5.188;2023-01-28T01:43:00;103055.0;;;4.51;76.5
68376;BME280;55318;52.068;5.188;2023-01-28T01:44:55;103061.99999999999;;;4.54;75.73
68376;BME280;55318;52.068;5.188;2023-01-28T01:46:36;103063.00000000001;;;4.66;75.44
68376;BME280;55318;52.068;5.188;2023-01-28T01:48:20;103064.00000000001;;;4.49;74.63
68376;BME280;55318;52.068;5.188;2023-01-28T01:51:42;103063.00000000001;;;4.62;74.3
68376;BME280;55318;52.068;5.188;2023-01-28T01:53:22;103073.0;;;4.59;74.02
68376;BME280;55318;52.068;5.188;2023-01-28T01:55:05;103078.0;;;4.42;74.53
68376;BME280;55318;52.068;5.188;2023-01-28T01:56:46;103078.0;;;4.43;75.39
68376;BME280;55318;52.068;5.188;2023-01-28T02:00:09;103078.0;;;4.47;76.59
68376;BME280;55318;52.068;5.188;2023-01-28T02:01:46;103074.0;;;4.33;75.45
68376;BME280;55318;52.068;5.188;2023-01-28T02:03:27;103071.0;;;4.45;77.11
68376;BME280;55318;52.068;5.188;2023-01-28T02:05:07;103071.0;;;4.46;77.42
68376;BME280;55318;52.068;5.188;2023-01-28T02:08:22;103067.0;;;4.57;75.73
68376;BME280;55318;52.068;5.188;2023-01-28T02:09:58;103067.0;;;4.42;77.3
68376;BME280;55318;52.068;5.188;2023-01-28T02:11:35;103067.0;;;4.62;76.06
68376;BME280;55318;52.068;5.188;2023-01-28T02:22:27;103067.0;;;4.49;78.27
68376;BME280;55318;52.068;5.188;2023-01-28T02:24:22;103071.0;;;4.5;77.17
68376;BME280;55318;52.068;5.188;2023-01-28T02:27:18;103068.0;;;4.46;76.55
68376;BME280;55318;52.068;5.188;2023-01-28T02:29:07;103067.0;;;4.49;77.69
68376;BME280;55318;52.068;5.188;2023-01-28T02:30:53;103075.0;;;4.42;77.92
68376;BME280;55318;52.068;5.188;2023-01-28T02:32:39;103078.0;;;4.43;77.55
68376;BME280;55318;52.068;5.188;2023-01-28T02:34:29;103084.99999999999;;;4.47;77.2
68376;BME280;55318;52.068;5.188;2023-01-28T02:38:03;103083.99999999999;;;4.57;76.19
68376;BME280;55318;52.068;5.188;2023-01-28T02:39:48;103084.99999999999;;;4.49;76.83
68376;BME280;55318;52.068;5.188;2023-01-28T02:41:33;103086.99999999999;;;4.53;77.28
68376;BME280;55318;52.068;5.188;2023-01-28T02:43:13;103079.0;;;4.84;76.47
68376;BME280;55318;52.068;5.188;2023-01-28T02:44:50;103079.0;;;4.78;76.36
68376;BME280;55318;52.068;5.188;2023-01-28T02:49:39;103077.0;;;4.86;77.06
68376;BME280;55318;52.068;5.188;2023-01-28T02:51:24;103082.0;;;4.97;75.73
68376;BME280;55318;52.068;5.188;2023-01-28T02:54:10;103082.0;;;4.86;75.94
68376;BME280;55318;52.068;5.188;2023-01-28T02:55:52;103081.0;;;4.91;77.12
68376;BME280;55318;52.068;5.188;2023-01-28T02:57:38;103082.0;;;5.01;76.52
68376;BME280;55318;52.068;5.188;2023-01-28T02:59:35;103081.0;;;5.05;75.55
68376;BME280;55318;52.068;5.188;2023-01-28T03:03:08;103075.0;;;5.03;75.92
68376;BME280;55318;52.068;5.188;2023-01-28T03:04:54;103067.0;;;4.88;76.37
68376;BME280;55318;52.068;5.188;2023-01-28T03:06:41;103063.00000000001;;;4.86;76.95
68376;BME280;55318;52.068;5.188;2023-01-28T03:09:26;103059.99999999999;;;4.72;76.45
68376;BME280;55318;52.068;5.188;2023-01-28T03:36:55;103077.0;;;4.46;76.61
68376;BME280;55318;52.068;5.188;2023-01-28T03:38:41;103075.0;;;4.3;78.48
68376;BME280;55318;52.068;5.188;2023-01-28T03:40:18;103078.0;;;4.54;76.77
68376;BME280;55318;52.068;5.188;2023-01-28T03:41:58;103074.0;;;4.39;78.09
68376;BME280;55318;52.068;5.188;2023-01-28T03:43:35;103067.0;;;4.42;77.34
68376;BME280;55318;52.068;5.188;2023-01-28T03:46:50;103067.0;;;4.34;77.55
68376;BME280;55318;52.068;5.188;2023-01-28T03:48:27;103072.0;;;4.28;76.98
68376;BME280;55318;52.068;5.188;2023-01-28T03:50:07;103070.0;;;4.32;77.55
68376;BME280;55318;52.068;5.188;2023-01-28T03:51:45;103070.0;;;4.21;78.23
68376;BME280;55318;52.068;5.188;2023-01-28T03:54:58;103069.0;;;4.24;78.3
68376;BME280;55318;52.068;5.188;2023-01-28T03:56:36;103067.0;;;4.28;76.8
68376;BME280;55318;52.068;5.188;2023-01-28T03:58:13;103076.0;;;4.37;78.41
68376;BME280;55318;52.068;5.188;2023-01-28T04:01:29;103075.0;;;4.32;78.12
68376;BME280;55318;52.068;5.188;2023-01-28T04:03:16;103075.0;;;4.37;78.2
68376;BME280;55318;52.068;5.188;2023-01-28T04:04:53;103077.0;;;4.32;77.66
68376;BME280;55318;52.068;5.188;2023-01-28T04:06:30;103079.0;;;4.33;77.67
68376;BME280;55318;52.068;5.188;2023-01-28T04:09:42;103078.0;;;4.46;77.31
68376;BME280;55318;52.068;5.188;2023-01-28T04:11:20;103079.0;;;4.47;77.52
68376;BME280;55318;52.068;5.188;2023-01-28T04:12:56;103078.0;;;4.34;76.3
68376;BME280;55318;52.068;5.188;2023-01-28T04:16:09;103083.99999999999;;;4.41;76.03
68376;BME280;55318;52.068;5.188;2023-01-28T04:17:45;103091.00000000001;;;4.34;75.45
68376;BME280;55318;52.068;5.188;2023-01-28T04:19:23;103097.0;;;4.5;76.44
68376;BME280;55318;52.068;5.188;2023-01-28T04:21:00;103092.0;;;4.39;75.99
68376;BME280;55318;52.068;5.188;2023-01-28T04:24:13;103095.0;;;4.57;74.47
68376;BME280;55318;52.068;5.188;2023-01-28T04:25:49;103099.0;;;4.64;74.86
68376;BME280;55318;52.068;5.188;2023-01-28T04:27:26;103102.0;;;4.53;74.72
68376;BME280;55318;52.068;5.188;2023-01-28T04:30:38;103103.0;;;4.63;75.12
68376;BME280;55318;52.068;5.188;2023-01-28T04:32:14;103108.0;;;4.63;74.13
68376;BME280;55318;52.068;5.188;2023-01-28T04:33:51;103117.0;;;4.63;75.44
68376;BME280;55318;52.068;5.188;2023-01-28T04:37:03;103111.99999999999;;;4.51;74.86
68376;BME280;55318;52.068;5.188;2023-01-28T04:38:39;103116.00000000001;;;4.36;75.37
68376;BME280;55318;52.068;5.188;2023-01-28T04:40:16;103117.0;;;4.32;75.86
68376;BME280;55318;52.068;5.188;2023-01-28T04:41:52;103118.0;;;4.37;76.59
68376;BME280;55318;52.068;5.188;2023-01-28T04:45:06;103117.0;;;4.41;76.24
68376;BME280;55318;52.068;5.188;2023-01-28T04:46:43;103109.99999999999;;;4.36;75.13
68376;BME280;55318;52.068;5.188;2023-01-28T04:48:19;103111.99999999999;;;4.41;75.62
68376;BME280;55318;52.068;5.188;2023-01-28T04:51:31;103100.0;;;4.34;74.66
68376;BME280;55318;52.068;5.188;2023-01-28T04:53:08;103095.0;;;4.29;75.05
68376;BME280;55318;52.068;5.188;2023-01-28T04:54:45;103093.0;;;4.41;74.42
68376;BME280;55318;52.068;5.188;2023-01-28T04:57:58;103098.0;;;4.37;73.84
68376;BME280;55318;52.068;5.188;2023-01-28T04:59:34;103099.0;;;4.36;73.52
68376;BME280;55318;52.068;5.188;2023-01-28T05:01:10;103091.00000000001;;;4.22;72.69
68376;BME280;55318;52.068;5.188;2023-01-28T05:04:22;103091.00000000001;;;4.13;73.03
68376;BME280;55318;52.068;5.188;2023-01-28T05:05:59;103092.0;;;4.32;74.0
68376;BME280;55318;52.068;5.188;2023-01-28T05:07:35;103094.0;;;4.28;73.14
68376;BME280;55318;52.068;5.188;2023-01-28T05:09:12;103093.0;;;3.99;73.8
68376;BME280;55318;52.068;5.188;2023-01-28T05:12:24;103099.0;;;4.0;72.78
68376;BME280;55318;52.068;5.188;2023-01-28T05:14:01;103097.0;;;4.08;72.99
68376;BME280;55318;52.068;5.188;2023-01-28T05:15:37;103096.0;;;3.96;72.3
68376;BME280;55318;52.068;5.188;2023-01-28T05:18:50;103092.0;;;3.93;72.77
68376;BME280;55318;52.068;5.188;2023-01-28T05:20:26;103088.00000000001;;;4.13;72.17
68376;BME280;55318;52.068;5.188;2023-01-28T05:22:02;103092.0;;;3.97;73.33
68376;BME280;55318;52.068;5.188;2023-01-28T05:25:14;103092.0;;;3.97;72.77
68376;BME280;55318;52.068;5.188;2023-01-28T05:26:50;103096.0;;;4.03;73.55
68376;BME280;55318;52.068;5.188;2023-01-28T05:28:28;103096.0;;;4.22;72.77
68376;BME280;55318;52.068;5.188;2023-01-28T05:30:07;103101.0;;;4.1;73.52
68376;BME280;55318;52.068;5.188;2023-01-28T05:33:19;103097.0;;;4.22;72.48
68376;BME280;55318;52.068;5.188;2023-01-28T05:34:55;103099.0;;;4.07;72.16
68376;BME280;55318;52.068;5.188;2023-01-28T05:36:31;103101.0;;;4.12;72.73
68376;BME280;55318;52.068;5.188;2023-01-28T05:39:44;103096.0;;;3.98;72.75
68376;BME280;55318;52.068;5.188;2023-01-28T05:41:20;103099.0;;;3.96;73.05
68376;BME280;55318;52.068;5.188;2023-01-28T05:42:56;103096.0;;;3.93;72.41
68376;BME280;55318;52.068;5.188;2023-01-28T05:46:08;103091.00000000001;;;4.12;73.17
68376;BME280;55318;52.068;5.188;2023-01-28T05:47:44;103095.0;;;4.03;74.11
68376;BME280;55318;52.068;5.188;2023-01-28T05:49:21;103096.0;;;4.03;73.16
68376;BME280;55318;52.068;5.188;2023-01-28T05:50:58;103092.0;;;4.3;72.83
68376;BME280;55318;52.068;5.188;2023-01-28T05:54:11;103093.0;;;4.2;71.67
68376;BME280;55318;52.068;5.188;2023-01-28T05:55:47;103091.00000000001;;;4.29;72.41
68376;BME280;55318;52.068;5.188;2023-01-28T05:57:24;103094.0;;;4.24;74.53
68376;BME280;55318;52.068;5.188;2023-01-28T06:00:37;103091.00000000001;;;4.37;73.23
68376;BME280;55318;52.068;5.188;2023-01-28T06:02:14;103095.0;;;4.41;71.94
68376;BME280;55318;52.068;5.188;2023-01-28T06:03:50;103095.0;;;4.42;73.11
68376;BME280;55318;52.068;5.188;2023-01-28T06:07:02;103092.0;;;4.36;73.28
68376;BME280;55318;52.068;5.188;2023-01-28T06:08:38;103098.0;;;4.2;74.0
68376;BME280;55318;52.068;5.188;2023-01-28T06:10:17;103100.0;;;4.16;73.3
68376;BME280;55318;52.068;5.188;2023-01-28T06:11:53;103096.0;;;4.17;73.62
68376;BME280;55318;52.068;5.188;2023-01-28T06:15:06;103093.0;;;4.33;73.23
68376;BME280;55318;52.068;5.188;2023-01-28T06:16:43;103095.0;;;4.18;72.77
68376;BME280;55318;52.068;5.188;2023-01-28T06:18:19;103100.0;;;4.21;72.64
68376;BME280;55318;52.068;5.188;2023-01-28T06:21:31;103099.0;;;3.9;72.2
68376;BME280;55318;52.068;5.188;2023-01-28T06:23:08;103099.0;;;3.98;73.08
68376;BME280;55318;52.068;5.188;2023-01-28T06:24:45;103097.0;;;4.16;73.55
68376;BME280;55318;52.068;5.188;2023-01-28T06:27:58;103093.0;;;4.3;72.05
68376;BME280;55318;52.068;5.188;2023-01-28T06:29:34;103098.0;;;4.2;72.64
68376;BME280;55318;52.068;5.188;2023-01-28T06:31:11;103097.0;;;4.03;74.02
68376;BME280;55318;52.068;5.188;2023-01-28T06:32:52;103098.0;;;3.96;74.53
68376;BME280;55318;52.068;5.188;2023-01-28T06:36:06;103100.0;;;3.95;75.52
68376;BME280;55318;52.068;5.188;2023-01-28T06:37:44;103101.0;;;4.12;74.33
68376;BME280;55318;52.068;5.188;2023-01-28T06:39:20;103101.0;;;4.04;74.52
68376;BME280;55318;52.068;5.188;2023-01-28T06:42:34;103108.99999999999;;;4.13;73.72
68376;BME280;55318;52.068;5.188;2023-01-28T06:44:10;103117.0;;;4.26;74.28
68376;BME280;55318;52.068;5.188;2023-01-28T06:45:47;103118.0;;;4.36;73.3
68376;BME280;55318;52.068;5.188;2023-01-28T06:47:23;103115.00000000001;;;4.28;72.27
68376;BME280;55318;52.068;5.188;2023-01-28T06:50:35;103117.0;;;4.32;72.8
68376;BME280;55318;52.068;5.188;2023-01-28T06:52:11;103117.0;;;4.16;73.92
68376;BME280;55318;52.068;5.188;2023-01-28T06:53:47;103119.0;;;4.32;74.25
68376;BME280;55318;52.068;5.188;2023-01-28T06:57:00;103122.0;;;4.33;73.49
68376;BME280;55318;52.068;5.188;2023-01-28T06:58:36;103127.0;;;4.3;73.84
68376;BME280;55318;52.068;5.188;2023-01-28T07:00:15;103132.0;;;4.25;73.36
68376;BME280;55318;52.068;5.188;2023-01-28T07:03:27;103130.0;;;4.3;73.23
68376;BME280;55318;52.068;5.188;2023-01-28T07:05:04;103130.0;;;4.1;73.5
68376;BME280;55318;52.068;5.188;2023-01-28T07:06:40;103130.0;;;3.96;74.53
68376;BME280;55318;52.068;5.188;2023-01-28T07:09:53;103130.0;;;3.97;75.36
68376;BME280;55318;52.068;5.188;2023-01-28T07:11:29;103125.0;;;3.93;74.94
68376;BME280;55318;52.068;5.188;2023-01-28T07:13:05;103126.0;;;4.01;74.28
68376;BME280;55318;52.068;5.188;2023-01-28T07:14:41;103122.0;;;3.84;74.56
68376;BME280;55318;52.068;5.188;2023-01-28T07:17:53;103123.0;;;4.0;74.0
68376;BME280;55318;52.068;5.188;2023-01-28T07:19:30;103130.0;;;3.95;75.08
68376;BME280;55318;52.068;5.188;2023-01-28T07:21:07;103125.0;;;4.08;74.02
68376;BME280;55318;52.068;5.188;2023-01-28T07:24:20;103134.99999999999;;;3.99;74.33
68376;BME280;55318;52.068;5.188;2023-01-28T07:26:00;103142.0;;;3.95;75.55
68376;BME280;55318;52.068;5.188;2023-01-28T07:27:36;103138.00000000001;;;3.92;74.84
68376;BME280;55318;52.068;5.188;2023-01-28T07:30:49;103142.0;;;3.93;75.31
68376;BME280;55318;52.068;5.188;2023-01-28T07:32:26;103142.0;;;4.25;73.55
68376;BME280;55318;52.068;5.188;2023-01-28T07:34:02;103142.0;;;4.2;74.03
68376;BME280;55318;52.068;5.188;2023-01-28T07:35:39;103143.0;;;4.01;74.83
68376;BME280;55318;52.068;5.188;2023-01-28T07:38:51;103148.0;;;3.91;75.19
68376;BME280;55318;52.068;5.188;2023-01-28T07:40:28;103149.0;;;3.89;75.23
68376;BME280;55318;52.068;5.188;2023-01-28T07:42:04;103147.0;;;3.93;75.69
68376;BME280;55318;52.068;5.188;2023-01-28T07:45:16;103149.0;;;3.91;75.94
68376;BME280;55318;52.068;5.188;2023-01-28T07:46:53;103151.0;;;3.99;74.48
68376;BME280;55318;52.068;5.188;2023-01-28T07:48:30;103157.0;;;3.95;75.3
68376;BME280;55318;52.068;5.188;2023-01-28T07:51:46;103156.0;;;3.91;77.0
68376;BME280;55318;52.068;5.188;2023-01-28T07:53:22;103156.0;;;3.91;75.39
68376;BME280;55318;52.068;5.188;2023-01-28T07:54:58;103158.99999999999;;;3.72;74.52
68376;BME280;55318;52.068;5.188;2023-01-28T07:56:34;103171.0;;;3.68;74.95
68376;BME280;55318;52.068;5.188;2023-01-28T07:59:48;103164.00000000001;;;3.75;74.66
68376;BME280;55318;52.068;5.188;2023-01-28T08:01:24;103164.00000000001;;;3.73;75.52
68376;BME280;55318;52.068;5.188;2023-01-28T08:03:02;103159.99999999999;;;3.86;75.97
68376;BME280;55318;52.068;5.188;2023-01-28T08:06:17;103167.0;;;4.03;74.53
68376;BME280;55318;52.068;5.188;2023-01-28T08:07:53;103168.0;;;3.8;74.98
68376;BME280;55318;52.068;5.188;2023-01-28T08:09:29;103173.0;;;3.86;75.19
68376;BME280;55318;52.068;5.188;2023-01-28T08:11:07;103169.0;;;3.96;74.56
68376;BME280;55318;52.068;5.188;2023-01-28T08:14:26;103161.99999999999;;;3.87;75.09
68376;BME280;55318;52.068;5.188;2023-01-28T08:16:04;103169.0;;;4.01;75.62
68376;BME280;55318;52.068;5.188;2023-01-28T08:17:41;103172.0;;;4.1;74.87
68376;BME280;55318;52.068;5.188;2023-01-28T08:20:54;103171.0;;;4.08;75.16
68376;BME280;55318;52.068;5.188;2023-01-28T08:22:31;103177.0;;;4.03;74.83
68376;BME280;55318;52.068;5.188;2023-01-28T08:24:07;103175.0;;;4.07;74.36
68376;BME280;55318;52.068;5.188;2023-01-28T08:25:44;103174.0;;;3.94;74.13
68376;BME280;55318;52.068;5.188;2023-01-28T08:28:57;103181.0;;;3.79;72.91
68376;BME280;55318;52.068;5.188;2023-01-28T08:30:33;103182.0;;;3.93;72.37
68376;BME280;55318;52.068;5.188;2023-01-28T08:32:10;103180.0;;;4.05;72.27
68376;BME280;55318;52.068;5.188;2023-01-28T08:35:22;103191.00000000001;;;4.01;71.63
68376;BME280;55318;52.068;5.188;2023-01-28T08:36:58;103190.00000000001;;;4.13;71.83
68376;BME280;55318;52.068;5.188;2023-01-28T08:38:34;103188.00000000001;;;3.93;71.91
68376;BME280;55318;52.068;5.188;2023-01-28T08:41:47;103190.00000000001;;;3.91;74.91
68376;BME280;55318;52.068;5.188;2023-01-28T08:43:24;103193.0;;;3.81;75.69
68376;BME280;55318;52.068;5.188;2023-01-28T08:45:01;103193.0;;;3.78;75.8
68376;BME280;55318;52.068;5.188;2023-01-28T08:48:15;103199.0;;;3.73;74.89
68376;BME280;55318;52.068;5.188;2023-01-28T08:49:52;103206.0;;;3.73;74.36
68376;BME280;55318;52.068;5.188;2023-01-28T08:51:28;103206.0;;;3.74;74.5
68376;BME280;55318;52.068;5.188;2023-01-28T08:53:08;103208.0;;;3.75;74.58
68376;BME280;55318;52.068;5.188;2023-01-28T08:56:22;103214.00000000001;;;3.8;74.98
68376;BME280;55318;52.068;5.188;2023-01-28T08:58:01;103222.0;;;3.77;74.56
68376;BME280;55318;52.068;5.188;2023-01-28T08:59:44;103217.0;;;3.8;74.02
68376;BME280;55318;52.068;5.188;2023-01-28T09:01:20;103214.00000000001;;;3.77;73.89
68376;BME280;55318;52.068;5.188;2023-01-28T09:04:32;103211.99999999999;;;3.73;72.44
68376;BME280;55318;52.068;5.188;2023-01-28T09:06:08;103217.0;;;3.76;72.72
68376;BME280;55318;52.068;5.188;2023-01-28T09:07:45;103225.0;;;3.85;73.48
68376;BME280;55318;52.068;5.188;2023-01-28T09:10:58;103218.0;;;3.83;73.52
68376;BME280;55318;52.068;5.188;2023-01-28T09:12:35;103206.0;;;3.92;73.36
68376;BME280;55318;52.068;5.188;2023-01-28T09:14:12;103203.0;;;4.13;72.25
68376;BME280;55318;52.068;5.188;2023-01-28T09:17:26;103204.0;;;4.1;71.75
68376;BME280;55318;52.068;5.188;2023-01-28T09:19:02;103208.99999999999;;;4.16;71.97
68376;BME280;55318;52.068;5.188;2023-01-28T09:20:38;103214.00000000001;;;4.04;72.77
68376;BME280;55318;52.068;5.188;2023-01-28T09:22:16;103216.00000000001;;;4.03;73.58
68376;BME280;55318;52.068;5.188;2023-01-28T09:25:31;103213.00000000001;;;4.12;74.63
68376;BME280;55318;52.068;5.188;2023-01-28T09:27:08;103226.0;;;4.49;73.52
68376;BME280;55318;52.068;5.188;2023-01-28T09:28:46;103226.0;;;4.62;71.66
68376;BME280;55318;52.068;5.188;2023-01-28T09:32:00;103219.0;;;5.03;72.48
68376;BME280;55318;52.068;5.188;2023-01-28T09:33:39;103229.0;;;5.4;69.02
68376;BME280;55318;52.068;5.188;2023-01-28T09:35:17;103228.0;;;5.58;68.23
68376;BME280;55318;52.068;5.188;2023-01-28T09:36:53;103227.0;;;6.02;68.7
68376;BME280;55318;52.068;5.188;2023-01-28T09:40:10;103224.0;;;6.24;66.16
68376;BME280;55318;52.068;5.188;2023-01-28T09:42:01;103233.0;;;6.39;65.33
68376;BME280;55318;52.068;5.188;2023-01-28T09:44:02;103231.0;;;6.65;67.08
68376;BME280;55318;52.068;5.188;2023-01-28T09:45:43;103236.99999999999;;;6.62;68.41
68376;BME280;55318;52.068;5.188;2023-01-28T09:47:25;103233.0;;;6.59;62.77
68376;BME280;55318;52.068;5.188;2023-01-28T09:50:53;103225.0;;;6.67;63.54
68376;BME280;55318;52.068;5.188;2023-01-28T09:52:33;103222.0;;;6.64;64.94
68376;BME280;55318;52.068;5.188;2023-01-28T09:54:22;103224.0;;;6.66;65.35
68376;BME280;55318;52.068;5.188;2023-01-28T09:56:05;103231.0;;;6.55;64.24
68376;BME280;55318;52.068;5.188;2023-01-28T09:59:24;103233.99999999999;;;6.32;62.9
68376;BME280;55318;52.068;5.188;2023-01-28T10:01:15;103236.99999999999;;;6.48;62.4
68376;BME280;55318;52.068;5.188;2023-01-28T10:03:23;103233.99999999999;;;6.47;63.58
68376;BME280;55318;52.068;5.188;2023-01-28T10:05:16;103233.99999999999;;;6.42;62.56
68376;BME280;55318;52.068;5.188;2023-01-28T10:07:04;103242.0;;;6.59;63.12
68376;BME280;55318;52.068;5.188;2023-01-28T10:09:25;103250.0;;;6.46;62.1
68376;BME280;55318;52.068;5.188;2023-01-28T10:11:15;103251.0;;;6.22;62.36
68376;BME280;55318;52.068;5.188;2023-01-28T10:13:05;103247.0;;;6.42;63.81
68376;BME280;55318;52.068;5.188;2023-01-28T10:14:57;103257.0;;;6.1;64.19
68376;BME280;55318;52.068;5.188;2023-01-28T10:16:42;103253.0;;;5.88;63.72
68376;BME280;55318;52.068;5.188;2023-01-28T10:20:17;103250.0;;;5.68;65.09
68376;BME280;55318;52.068;5.188;2023-01-28T10:22:00;103249.0;;;5.67;65.6
68376;BME280;55318;52.068;5.188;2023-01-28T10:23:53;103245.0;;;5.64;64.35
68376;BME280;55318;52.068;5.188;2023-01-28T10:25:31;103243.0;;;5.56;64.83
68376;BME280;55318;52.068;5.188;2023-01-28T10:27:11;103240.00000000001;;;5.67;64.91
68376;BME280;55318;52.068;5.188;2023-01-28T10:30:35;103236.99999999999;;;5.58;66.23
68376;BME280;55318;52.068;5.188;2023-01-28T10:32:25;103231.0;;;5.55;67.09
68376;BME280;55318;52.068;5.188;2023-01-28T10:34:04;103230.0;;;5.71;65.64
68376;BME280;55318;52.068;5.188;2023-01-28T10:35:41;103228.0;;;5.65;65.38
68376;BME280;55318;52.068;5.188;2023-01-28T10:38:55;103227.0;;;5.56;64.91
68376;BME280;55318;52.068;5.188;2023-01-28T10:40:32;103231.0;;;5.4;65.95
68376;BME280;55318;52.068;5.188;2023-01-28T10:42:16;103231.0;;;5.31;66.72
68376;BME280;55318;52.068;5.188;2023-01-28T10:44:02;103233.0;;;5.27;66.56
68376;BME280;55318;52.068;5.188;2023-01-28T10:47:32;103231.0;;;5.4;66.73
68376;BME280;55318;52.068;5.188;2023-01-28T10:49:15;103224.0;;;5.43;68.37
68376;BME280;55318;52.068;5.188;2023-01-28T10:50:55;103227.0;;;5.4;67.77
68376;BME280;55318;52.068;5.188;2023-01-28T10:52:32;103220.0;;;5.5;65.63
68376;BME280;55318;52.068;5.188;2023-01-28T10:56:04;103221.0;;;5.51;65.5
68376;BME280;55318;52.068;5.188;2023-01-28T10:57:43;103214.00000000001;;;5.38;65.72
68376;BME280;55318;52.068;5.188;2023-01-28T10:59:24;103211.99999999999;;;5.36;66.38
68376;BME280;55318;52.068;5.188;2023-01-28T11:01:03;103211.99999999999;;;5.31;64.77
68376;BME280;55318;52.068;5.188;2023-01-28T11:02:42;103205.0;;;5.41;66.94
68376;BME280;55318;52.068;5.188;2023-01-28T11:06:00;103202.0;;;5.24;67.02
68376;BME280;55318;52.068;5.188;2023-01-28T11:07:37;103189.00000000001;;;5.32;66.85
68376;BME280;55318;52.068;5.188;2023-01-28T11:09:23;103183.99999999999;;;5.64;65.74
68376;BME280;55318;52.068;5.188;2023-01-28T11:11:00;103163.00000000001;;;5.81;64.62
68376;BME280;55318;52.068;5.188;2023-01-28T11:14:19;103155.0;;;5.88;64.88
68376;BME280;55318;52.068;5.188;2023-01-28T11:15:59;103157.0;;;6.04;63.61
68376;BME280;55318;52.068;5.188;2023-01-28T11:17:47;103156.0;;;6.08;63.93
68376;BME280;55318;52.068;5.188;2023-01-28T11:19:32;103158.0;;;6.22;63.86
68376;BME280;55318;52.068;5.188;2023-01-28T11:22:55;103143.0;;;6.15;63.3
68376;BME280;55318;52.068;5.188;2023-01-28T11:24:33;103134.99999999999;;;6.29;63.05
68376;BME280;55318;52.068;5.188;2023-01-28T11:26:14;103133.99999999999;;;6.35;63.79
68376;BME280;55318;52.068;5.188;2023-01-28T11:27:53;103127.0;;;6.38;63.55
68376;BME280;55318;52.068;5.188;2023-01-28T11:31:11;103122.0;;;6.57;63.76